createdAt,value
2022-08-22T00:01:14.203Z,81.10
2022-08-22T00:03:52.759Z,81.60
2022-08-22T00:06:27.670Z,82.20
2022-08-22T00:09:06.634Z,83.40
2022-08-22T00:11:42.892Z,81.80
2022-08-22T00:14:17.944Z,81.90
2022-08-22T00:16:53.497Z,80.90
2022-08-22T00:19:25.745Z,81.30
2022-08-22T00:22:00.193Z,82.80
2022-08-22T00:24:33.925Z,82.80
2022-08-22T00:27:05.310Z,81.80
2022-08-22T00:29:39.211Z,81.80
2022-08-22T00:32:13.332Z,82.50
2022-08-22T00:34:53.043Z,83.40
2022-08-22T00:37:25.920Z,81.70
2022-08-22T00:40:03.336Z,82.60
2022-08-22T00:42:53.213Z,83.30
2022-08-22T00:45:54.108Z,82.30
2022-08-22T00:48:35.645Z,83.50
2022-08-22T00:51:28.366Z,83.90
2022-08-22T00:54:03.267Z,82.50
2022-08-22T00:56:58.629Z,82.20
2022-08-22T00:59:40.055Z,83.00
2022-08-22T01:02:24.222Z,82.50
2022-08-22T01:05:06.203Z,82.30
2022-08-22T01:07:54.047Z,83.00
2022-08-22T01:10:38.631Z,82.80
2022-08-22T01:13:19.875Z,83.00
2022-08-22T01:15:50.287Z,83.60
2022-08-22T01:18:34.062Z,82.70
2022-08-22T01:21:34.560Z,82.70
2022-08-22T01:24:40.433Z,84.60
2022-08-22T01:27:30.897Z,88.80
2022-08-22T01:30:19.787Z,85.50
2022-08-22T01:33:22.752Z,84.60
2022-08-22T01:36:13.940Z,85.80
2022-08-22T01:39:00.401Z,83.60
2022-08-22T01:42:12.745Z,83.40
2022-08-22T01:45:18.383Z,84.80
2022-08-22T01:47:53.626Z,84.20
2022-08-22T01:50:26.013Z,84.00
2022-08-22T01:53:02.355Z,83.50
2022-08-22T01:55:34.751Z,83.50
2022-08-22T01:58:04.207Z,83.70
2022-08-22T02:00:51.224Z,82.80
2022-08-22T02:03:25.218Z,83.30
2022-08-22T02:06:02.590Z,83.20
2022-08-22T02:08:40.352Z,83.40
2022-08-22T02:11:09.771Z,83.80
2022-08-22T02:13:48.668Z,83.80
2022-08-22T02:16:25.396Z,83.50
2022-08-22T02:19:04.592Z,83.60
2022-08-22T02:21:42.673Z,83.70
2022-08-22T02:24:34.409Z,87.00
2022-08-22T02:27:08.425Z,86.60
2022-08-22T02:29:42.237Z,84.90
2022-08-22T02:32:19.018Z,84.40
2022-08-22T02:34:58.673Z,83.60
2022-08-22T02:37:34.972Z,83.80
2022-08-22T02:40:09.510Z,83.90
2022-08-22T02:42:43.755Z,84.00
2022-08-22T02:45:18.791Z,83.20
2022-08-22T02:47:51.240Z,83.20
2022-08-22T02:50:23.581Z,83.30
2022-08-22T02:52:57.521Z,83.10
2022-08-22T02:55:37.880Z,83.80
2022-08-22T02:58:08.568Z,83.30
2022-08-22T03:00:46.426Z,83.10
2022-08-22T03:03:21.785Z,82.60
2022-08-22T03:06:00.878Z,83.10
2022-08-22T03:08:31.113Z,83.00
2022-08-22T03:11:08.543Z,82.90
2022-08-22T03:13:48.058Z,83.00
2022-08-22T03:16:21.933Z,83.00
2022-08-22T03:18:59.370Z,83.40
2022-08-22T03:21:31.976Z,83.10
2022-08-22T03:24:07.102Z,83.50
2022-08-22T03:26:46.745Z,83.10
2022-08-22T03:29:18.424Z,84.10
2022-08-22T03:32:08.661Z,84.00
2022-08-22T03:34:36.713Z,84.00
2022-08-22T03:37:12.911Z,83.80
2022-08-22T03:39:51.600Z,83.70
2022-08-22T03:42:54.936Z,83.40
2022-08-22T03:45:43.641Z,83.30
2022-08-22T03:48:45.161Z,83.00
2022-08-22T03:51:22.209Z,83.30
2022-08-22T03:54:17.403Z,83.60
2022-08-22T03:57:17.537Z,83.70
2022-08-22T04:00:13.908Z,84.10
2022-08-22T04:03:19.557Z,83.60
2022-08-22T04:06:17.812Z,83.80
2022-08-22T04:09:03.132Z,83.60
2022-08-22T04:12:09.670Z,83.00
2022-08-22T04:14:59.244Z,82.80
2022-08-22T04:17:40.875Z,83.20
2022-08-22T04:20:36.647Z,83.20
2022-08-22T04:23:32.869Z,83.60
2022-08-22T04:26:12.104Z,83.30
2022-08-22T04:28:43.516Z,83.40
2022-08-22T04:31:12.449Z,83.10
2022-08-22T04:33:46.033Z,83.30
2022-08-22T04:36:19.066Z,83.00
2022-08-22T04:38:50.437Z,83.80
2022-08-22T04:41:21.580Z,83.90
2022-08-22T04:43:54.740Z,84.10
2022-08-22T04:46:25.845Z,84.20
2022-08-22T04:49:07.764Z,84.60
2022-08-22T04:51:38.521Z,84.20
2022-08-22T04:54:25.901Z,84.80
2022-08-22T04:57:10.871Z,84.70
2022-08-22T04:59:38.609Z,84.40
2022-08-22T05:02:09.343Z,84.70
2022-08-22T05:04:41.065Z,84.60
2022-08-22T05:07:12.923Z,84.90
2022-08-22T05:09:46.057Z,84.60
2022-08-22T05:12:18.322Z,84.60
2022-08-22T05:14:51.701Z,84.90
2022-08-22T05:17:25.163Z,85.30
2022-08-22T05:19:55.312Z,85.60
2022-08-22T05:22:28.281Z,85.50
2022-08-22T05:24:59.471Z,85.50
2022-08-22T05:27:29.446Z,85.90
2022-08-22T05:30:02.777Z,85.50
2022-08-22T05:32:35.378Z,85.50
2022-08-22T05:35:08.313Z,86.50
2022-08-22T05:37:42.061Z,87.60
2022-08-22T05:40:18.838Z,87.20
2022-08-22T05:42:46.853Z,88.90
2022-08-22T05:45:16.767Z,88.00
2022-08-22T05:47:48.114Z,88.80
2022-08-22T05:50:19.978Z,89.80
2022-08-22T05:53:01.865Z,89.50
2022-08-22T05:55:31.340Z,90.20
2022-08-22T05:58:28.866Z,90.20
2022-08-22T06:01:03.826Z,90.20
2022-08-22T06:03:35.252Z,90.50
2022-08-22T06:06:10.213Z,91.20
2022-08-22T06:08:39.490Z,91.10
2022-08-22T06:11:11.894Z,91.50
2022-08-22T06:13:42.221Z,91.20
2022-08-22T06:16:15.466Z,90.20
2022-08-22T06:18:44.698Z,90.00
2022-08-22T06:21:18.861Z,90.70
2022-08-22T06:23:46.768Z,89.80
2022-08-22T06:26:21.202Z,90.90
2022-08-22T06:28:54.622Z,90.50
2022-08-22T06:31:26.981Z,90.30
2022-08-22T06:33:57.809Z,89.10
2022-08-22T06:36:26.885Z,86.60
2022-08-22T06:38:59.844Z,87.30
2022-08-22T06:41:30.690Z,86.40
2022-08-22T06:43:59.283Z,88.20
2022-08-22T06:46:28.934Z,88.90
2022-08-22T06:49:00.206Z,88.10
2022-08-22T06:51:29.738Z,89.60
2022-08-22T06:54:01.669Z,90.10
2022-08-22T06:56:33.990Z,90.90
2022-08-22T06:59:06.864Z,90.20
2022-08-22T07:01:35.853Z,90.00
2022-08-22T07:04:05.672Z,89.10
2022-08-22T07:06:36.434Z,86.90
2022-08-22T07:09:06.742Z,84.10
2022-08-22T07:11:38.578Z,83.00
2022-08-22T07:14:08.217Z,82.30
2022-08-22T07:16:40.977Z,81.90
2022-08-22T07:19:09.833Z,81.70
2022-08-22T07:21:46.939Z,81.00
2022-08-22T07:24:17.564Z,80.80
2022-08-22T07:26:50.877Z,80.20
2022-08-22T07:29:28.845Z,80.00
2022-08-22T07:32:06.190Z,79.70
2022-08-22T07:34:45.019Z,79.40
2022-08-22T07:37:18.157Z,78.00
2022-08-22T07:39:51.701Z,77.30
2022-08-22T07:42:27.479Z,78.10
2022-08-22T07:45:05.480Z,77.90
2022-08-22T07:47:49.664Z,77.50
2022-08-22T07:50:20.302Z,76.50
2022-08-22T07:52:49.557Z,76.60
2022-08-22T07:55:19.493Z,76.00
2022-08-22T07:57:51.233Z,75.90
2022-08-22T08:00:20.462Z,76.30
2022-08-22T08:02:51.376Z,76.20
2022-08-22T08:05:20.217Z,76.30
2022-08-22T08:07:48.973Z,76.20
2022-08-22T08:10:19.566Z,76.20
2022-08-22T08:13:00.564Z,76.00
2022-08-22T08:15:32.519Z,75.90
2022-08-22T08:18:03.013Z,76.00
2022-08-22T08:20:30.357Z,75.90
2022-08-22T08:22:59.988Z,75.80
2022-08-22T08:25:30.038Z,75.80
2022-08-22T08:27:59.175Z,75.40
2022-08-22T08:30:34.867Z,75.60
2022-08-22T08:33:24.295Z,75.30
2022-08-22T08:36:03.412Z,75.30
2022-08-22T08:38:40.932Z,75.30
2022-08-22T08:41:41.651Z,74.70
2022-08-22T08:44:25.463Z,75.00
2022-08-22T08:47:20.417Z,74.50
2022-08-22T08:50:10.513Z,66.90
2022-08-22T08:52:57.786Z,62.60
2022-08-22T08:55:42.527Z,59.10
2022-08-22T08:58:25.500Z,61.30
2022-08-22T09:01:02.082Z,63.00
2022-08-22T09:03:58.296Z,61.50
2022-08-22T09:06:56.686Z,60.10
2022-08-22T09:09:52.603Z,62.40
2022-08-22T09:12:57.054Z,60.00
2022-08-22T09:15:59.743Z,61.60
2022-08-22T09:19:00.428Z,61.90
2022-08-22T09:21:56.961Z,61.00
2022-08-22T09:24:53.200Z,60.90
2022-08-22T09:27:30.573Z,62.20
2022-08-22T09:30:05.955Z,57.60
2022-08-22T09:32:48.473Z,59.00
2022-08-22T09:35:24.986Z,60.10
2022-08-22T09:38:07.561Z,61.50
2022-08-22T09:40:43.316Z,60.00
2022-08-22T09:43:19.848Z,58.90
2022-08-22T09:45:58.314Z,59.70
2022-08-22T09:48:45.980Z,60.10
2022-08-22T09:51:32.201Z,60.60
2022-08-22T09:54:31.485Z,58.40
2022-08-22T09:57:13.883Z,58.90
2022-08-22T09:59:54.792Z,58.00
2022-08-22T10:02:33.571Z,56.10
2022-08-22T10:05:11.960Z,59.00
2022-08-22T10:08:11.438Z,59.70
2022-08-22T10:10:56.450Z,58.00
2022-08-22T10:13:36.034Z,59.80
2022-08-22T10:16:17.733Z,57.40
2022-08-22T10:19:00.539Z,57.50
2022-08-22T10:21:34.580Z,57.20
2022-08-22T10:24:09.756Z,56.60
2022-08-22T10:26:46.217Z,55.80
2022-08-22T10:29:37.890Z,56.80
2022-08-22T10:32:16.480Z,58.70
2022-08-22T10:34:47.932Z,57.60
2022-08-22T10:37:24.103Z,57.40
2022-08-22T10:39:57.717Z,55.20
2022-08-22T10:42:27.911Z,56.70
2022-08-22T10:45:12.770Z,56.50
2022-08-22T10:48:22.369Z,56.20
2022-08-22T10:50:55.086Z,56.20
2022-08-22T10:53:29.381Z,56.80
2022-08-22T10:56:06.866Z,54.20
2022-08-22T10:58:40.310Z,56.40
2022-08-22T11:01:41.634Z,57.60
2022-08-22T11:04:06.242Z,57.20
2022-08-22T11:06:42.215Z,55.30
2022-08-22T11:09:24.678Z,56.30
2022-08-22T11:12:02.173Z,53.70
2022-08-22T11:15:09.435Z,53.40
2022-08-22T11:18:06.617Z,53.50
2022-08-22T11:20:52.675Z,55.00
2022-08-22T11:23:31.473Z,55.70
2022-08-22T11:26:07.052Z,53.50
2022-08-22T11:29:13.323Z,54.30
2022-08-22T11:31:51.565Z,52.30
2022-08-22T11:34:35.012Z,55.50
2022-08-22T11:37:11.596Z,56.60
2022-08-22T11:39:44.894Z,54.30
2022-08-22T11:42:21.988Z,53.30
2022-08-22T11:44:52.724Z,55.80
2022-08-22T11:47:26.376Z,54.40
2022-08-22T11:49:59.274Z,53.20
2022-08-22T11:52:56.909Z,53.20
2022-08-22T11:55:34.561Z,54.80
2022-08-22T11:58:16.369Z,52.60
2022-08-22T12:00:53.969Z,49.80
2022-08-22T12:04:00.279Z,51.40
2022-08-22T12:06:39.126Z,50.50
2022-08-22T12:09:52.106Z,49.30
2022-08-22T12:12:33.456Z,52.30
2022-08-22T12:15:11.091Z,51.90
2022-08-22T12:18:15.340Z,51.90
2022-08-22T12:21:15.903Z,51.10
2022-08-22T12:24:19.012Z,50.60
2022-08-22T12:26:58.377Z,49.70
2022-08-22T12:29:44.751Z,48.60
2022-08-22T12:32:39.802Z,48.40
2022-08-22T12:35:30.034Z,49.50
2022-08-22T12:38:28.102Z,49.70
2022-08-22T12:41:28.518Z,48.20
2022-08-22T12:44:23.256Z,51.00
2022-08-22T12:47:06.295Z,49.80
2022-08-22T12:49:49.821Z,51.70
2022-08-22T12:52:34.421Z,51.30
2022-08-22T12:55:32.830Z,50.70
2022-08-22T12:58:09.418Z,51.60
2022-08-22T13:00:38.463Z,50.80
2022-08-22T13:03:10.884Z,52.30
2022-08-22T13:05:44.003Z,52.60
2022-08-22T13:08:17.401Z,52.50
2022-08-22T13:10:47.581Z,54.50
2022-08-22T13:13:31.664Z,52.00
2022-08-22T13:16:07.513Z,52.80
2022-08-22T13:18:40.122Z,52.70
2022-08-22T13:21:16.801Z,53.30
2022-08-22T13:23:51.616Z,52.30
2022-08-22T13:26:26.950Z,52.40
2022-08-22T13:29:24.483Z,51.80
2022-08-22T13:31:53.457Z,54.60
2022-08-22T13:34:38.477Z,52.40
2022-08-22T13:37:11.601Z,52.80
2022-08-22T13:39:43.016Z,52.40
2022-08-22T13:42:20.373Z,53.40
2022-08-22T13:44:59.367Z,52.90
2022-08-22T13:47:31.787Z,53.30
2022-08-22T13:50:09.106Z,52.90
2022-08-22T13:52:44.133Z,52.20
2022-08-22T13:55:24.168Z,53.60
2022-08-22T13:58:00.801Z,54.40
2022-08-22T14:00:57.874Z,53.40
2022-08-22T14:03:31.768Z,54.50
2022-08-22T14:06:26.579Z,52.80
2022-08-22T14:08:48.588Z,51.30
2022-08-22T14:11:22.407Z,51.80
2022-08-22T14:13:53.958Z,50.80
2022-08-22T14:16:26.848Z,53.00
2022-08-22T14:18:57.405Z,52.70
2022-08-22T14:21:40.754Z,50.40
2022-08-22T14:24:19.974Z,52.30
2022-08-22T14:26:57.839Z,52.80
2022-08-22T14:29:28.161Z,52.90
2022-08-22T14:32:02.731Z,54.50
2022-08-22T14:34:32.789Z,55.40
2022-08-22T14:37:06.615Z,55.80
2022-08-22T14:39:39.271Z,56.50
2022-08-22T14:42:14.945Z,56.60
2022-08-22T14:44:54.290Z,56.70
2022-08-22T14:47:54.060Z,56.90
2022-08-22T14:50:38.197Z,56.60
2022-08-22T14:53:09.121Z,56.50
2022-08-22T14:55:39.088Z,56.30
2022-08-22T14:58:15.938Z,56.50
2022-08-22T15:00:47.449Z,55.80
2022-08-22T15:03:25.325Z,56.20
2022-08-22T15:05:55.954Z,55.80
2022-08-22T15:08:31.250Z,55.70
2022-08-22T15:11:20.368Z,55.70
2022-08-22T15:13:56.598Z,55.90
2022-08-22T15:16:30.317Z,55.80
2022-08-22T15:18:58.941Z,55.70
2022-08-22T15:21:28.186Z,56.00
2022-08-22T15:23:59.411Z,56.10
2022-08-22T15:26:30.813Z,55.50
2022-08-22T15:29:08.631Z,55.40
2022-08-22T15:31:37.903Z,55.40
2022-08-22T15:34:13.738Z,55.30
2022-08-22T15:37:00.857Z,55.50
2022-08-22T15:39:56.910Z,55.60
2022-08-22T15:42:25.909Z,55.50
2022-08-22T15:44:54.525Z,55.40
2022-08-22T15:47:30.418Z,55.30
2022-08-22T15:50:02.765Z,55.00
2022-08-22T15:52:35.607Z,55.00
2022-08-22T15:55:20.847Z,55.20
2022-08-22T15:57:59.703Z,55.00
2022-08-22T16:00:33.823Z,53.70
2022-08-22T16:03:04.421Z,53.70
2022-08-22T16:05:54.570Z,53.60
2022-08-22T16:08:27.640Z,53.30
2022-08-22T16:11:25.471Z,53.40
2022-08-22T16:14:16.953Z,53.60
2022-08-22T16:17:01.530Z,53.60
2022-08-22T16:19:29.539Z,54.00
2022-08-22T16:22:11.154Z,54.80
2022-08-22T16:25:00.838Z,54.30
2022-08-22T16:27:30.156Z,54.70
2022-08-22T16:30:12.525Z,54.80
2022-08-22T16:32:39.736Z,54.90
2022-08-22T16:35:07.137Z,55.10
2022-08-22T16:37:48.576Z,55.00
2022-08-22T16:40:22.916Z,54.70
2022-08-22T16:43:07.981Z,55.00
2022-08-22T16:45:37.820Z,55.20
2022-08-22T16:48:16.709Z,55.20
2022-08-22T16:50:43.699Z,55.20
2022-08-22T16:53:36.884Z,55.30
2022-08-22T16:56:24.968Z,55.30
2022-08-22T16:59:23.363Z,55.00
2022-08-22T17:02:10.333Z,55.30
2022-08-22T17:04:48.428Z,55.10
2022-08-22T17:07:33.176Z,55.00
2022-08-22T17:10:31.646Z,54.50
2022-08-22T17:13:26.485Z,54.70
2022-08-22T17:16:07.915Z,54.10
2022-08-22T17:18:58.068Z,54.40
2022-08-22T17:21:28.929Z,54.10
2022-08-22T17:24:04.236Z,54.10
2022-08-22T17:26:46.692Z,53.90
2022-08-22T17:29:22.221Z,53.30
2022-08-22T17:31:54.886Z,53.00
2022-08-22T17:34:33.145Z,53.40
2022-08-22T17:37:08.459Z,53.20
2022-08-22T17:39:58.732Z,53.60
2022-08-22T17:42:57.213Z,53.30
2022-08-22T17:45:37.091Z,53.20
2022-08-22T17:48:11.962Z,52.80
2022-08-22T17:50:44.794Z,53.00
2022-08-22T17:53:23.465Z,52.60
2022-08-22T17:56:00.233Z,52.60
2022-08-22T17:58:43.258Z,52.70
2022-08-22T18:01:14.191Z,52.70
2022-08-22T18:03:49.546Z,53.00
2022-08-22T18:06:21.709Z,53.00
2022-08-22T18:11:46.120Z,53.50
2022-08-22T18:14:25.809Z,53.40
2022-08-22T18:16:55.221Z,53.70
2022-08-22T18:19:43.392Z,53.50
2022-08-22T18:22:18.691Z,54.20
2022-08-22T18:24:50.892Z,54.20
2022-08-22T18:27:29.963Z,54.50
2022-08-22T18:30:06.952Z,54.60
2022-08-22T18:32:40.045Z,54.70
2022-08-22T18:35:17.413Z,55.30
2022-08-22T18:37:54.045Z,54.80
2022-08-22T18:40:28.484Z,55.00
2022-08-22T18:43:04.213Z,55.20
2022-08-22T18:45:54.695Z,55.80
2022-08-22T18:48:28.489Z,55.90
2022-08-22T18:51:24.319Z,56.40
2022-08-22T18:53:54.515Z,56.50
2022-08-22T18:56:49.379Z,56.50
2022-08-22T18:59:34.871Z,56.70
2022-08-22T19:02:16.625Z,57.10
2022-08-22T19:05:10.048Z,57.70
2022-08-22T19:07:54.387Z,58.10
2022-08-22T19:10:54.029Z,58.20
2022-08-22T19:13:53.650Z,58.60
2022-08-22T19:16:46.360Z,58.70
2022-08-22T19:19:19.412Z,59.20
2022-08-22T19:22:24.634Z,59.00
2022-08-22T19:25:18.215Z,59.40
2022-08-22T19:28:06.281Z,59.60
2022-08-22T19:30:44.243Z,59.70
2022-08-22T19:33:12.177Z,59.40
2022-08-22T19:36:05.423Z,59.60
2022-08-22T19:38:53.628Z,59.30
2022-08-22T19:41:48.097Z,59.40
2022-08-22T19:44:40.436Z,59.70
2022-08-22T19:47:24.124Z,60.90
2022-08-22T19:49:58.116Z,60.80
2022-08-22T19:52:36.085Z,60.80
2022-08-22T19:55:11.133Z,60.80
2022-08-22T19:57:44.447Z,61.30
2022-08-22T20:00:14.723Z,61.80
2022-08-22T20:02:55.817Z,61.80
2022-08-22T20:05:37.595Z,61.30
2022-08-22T20:08:26.597Z,61.10
2022-08-22T20:11:02.373Z,60.60
2022-08-22T20:13:32.749Z,60.60
2022-08-22T20:16:11.903Z,60.80
2022-08-22T20:19:12.848Z,61.20
2022-08-22T20:21:45.390Z,60.60
2022-08-22T20:24:19.138Z,60.50
2022-08-22T20:27:10.384Z,60.60
2022-08-22T20:29:41.953Z,61.30
2022-08-22T20:32:08.892Z,62.10
2022-08-22T20:34:38.481Z,62.10
2022-08-22T20:37:29.014Z,63.00
2022-08-22T20:39:59.198Z,63.30
2022-08-22T20:42:28.612Z,63.60
2022-08-22T20:44:58.811Z,63.60
2022-08-22T20:47:30.323Z,64.10
2022-08-22T20:50:10.740Z,64.20
2022-08-22T20:52:39.436Z,64.10
2022-08-22T20:55:11.905Z,64.30
2022-08-22T20:57:45.536Z,63.80
2022-08-22T21:00:16.961Z,64.10
2022-08-22T21:02:55.078Z,64.00
2022-08-22T21:05:24.701Z,64.50
2022-08-22T21:08:05.248Z,64.00
2022-08-22T21:10:35.087Z,64.10
2022-08-22T21:13:08.342Z,64.00
2022-08-22T21:15:38.479Z,64.00
2022-08-22T21:18:05.743Z,63.90
2022-08-22T21:20:35.876Z,64.70
2022-08-22T21:23:06.078Z,64.80
2022-08-22T21:25:46.068Z,64.30
2022-08-22T21:28:24.156Z,65.10
2022-08-22T21:30:52.278Z,65.10
2022-08-22T21:33:23.574Z,64.90
2022-08-22T21:35:57.069Z,64.40
2022-08-22T21:38:23.987Z,65.20
2022-08-22T21:40:51.227Z,65.90
2022-08-22T21:43:30.391Z,66.20
2022-08-22T21:45:58.662Z,66.10
2022-08-22T21:48:37.924Z,66.00
2022-08-22T21:51:26.967Z,66.00
2022-08-22T21:54:21.675Z,65.30
2022-08-22T21:56:49.717Z,65.10
2022-08-22T21:59:24.970Z,65.60
2022-08-22T22:01:55.431Z,66.20
2022-08-22T22:04:22.609Z,66.60
2022-08-22T22:06:49.334Z,66.00
2022-08-22T22:09:16.040Z,66.50
2022-08-22T22:11:42.777Z,65.60
2022-08-22T22:14:09.497Z,66.10
2022-08-22T22:16:36.219Z,67.00
2022-08-22T22:19:07.443Z,66.00
2022-08-22T22:21:34.237Z,66.10
2022-08-22T22:24:00.960Z,66.40
2022-08-22T22:26:27.717Z,66.00
2022-08-22T22:28:54.478Z,66.00
2022-08-22T22:31:21.288Z,65.90
2022-08-22T22:33:48.045Z,66.40
2022-08-22T22:36:21.026Z,66.10
2022-08-22T22:38:51.524Z,65.60
2022-08-22T22:41:19.370Z,66.10
2022-08-22T22:43:46.071Z,65.40
2022-08-22T22:46:12.808Z,65.50
2022-08-22T22:48:39.560Z,65.30
2022-08-22T22:51:07.915Z,65.60
2022-08-22T22:53:38.384Z,66.80
2022-08-22T22:56:06.770Z,66.60
2022-08-22T22:58:34.816Z,66.00
2022-08-22T23:01:07.469Z,66.00
2022-08-22T23:03:34.226Z,66.40
2022-08-22T23:06:01.075Z,66.00
2022-08-22T23:08:28.028Z,66.60
2022-08-22T23:10:56.092Z,67.30
2022-08-22T23:13:22.781Z,66.50
2022-08-22T23:15:49.464Z,66.30
2022-08-22T23:18:16.179Z,66.60
2022-08-22T23:20:42.894Z,66.40
2022-08-22T23:23:09.588Z,66.60
2022-08-22T23:25:36.323Z,66.50
2022-08-22T23:28:04.501Z,66.10
2022-08-22T23:30:31.232Z,66.00
2022-08-22T23:32:58.045Z,67.20
2022-08-22T23:35:24.748Z,67.70
2022-08-22T23:37:51.472Z,66.90
2022-08-22T23:40:18.407Z,66.40
2022-08-22T23:42:45.217Z,66.40
2022-08-22T23:45:13.295Z,66.60
2022-08-22T23:47:40.037Z,66.70
2022-08-22T23:50:07.160Z,67.40
2022-08-22T23:52:33.965Z,67.50
2022-08-22T23:55:00.703Z,67.40
2022-08-22T23:57:27.851Z,67.60
2022-08-22T23:59:57.662Z,68.00
